Time;durP1;ratioP1;P1;durP2;ratioP2;P2;SDS_P1;SDS_P2;PMS_P1;PMS_P2;Temp;Humidity;BMP_temperature;BMP_pressure;BME280_temperature;BME280_humidity;BME280_pressure;Samples;Min_cycle;Max_cycle;Signal;HPM_P1;HPM_P2
2023/09/20 00:01:22;;;;;;;8.70;2.00;;;;;;;;;;5144912;27;20649;-69
2023/09/20 00:03:48;;;;;;;7.05;2.30;;;;;;;;;;5137696;27;20195;-68
2023/09/20 00:06:17;;;;;;;10.63;2.40;;;;;;;;;;5139422;27;20598;-70
2023/09/20 00:08:43;;;;;;;10.57;2.00;;;;;;;;;;5121939;27;20213;-70
2023/09/20 00:11:15;;;;;;;9.93;2.78;;;;;;;;;;5146290;27;20178;-69
2023/09/20 00:13:43;;;;;;;7.70;2.38;;;;;;;;;;5144861;27;20215;-68
2023/09/20 00:16:09;;;;;;;12.05;2.20;;;;;;;;;;5141985;27;20248;-69
2023/09/20 00:18:35;;;;;;;7.30;2.08;;;;;;;;;;5124992;27;20205;-69
2023/09/20 00:21:01;;;;;;;8.85;2.38;;;;;;;;;;5146333;27;20545;-69
2023/09/20 00:23:27;;;;;;;9.00;2.13;;;;;;;;;;5125358;27;20190;-75
2023/09/20 00:25:53;;;;;;;5.90;1.92;;;;;;;;;;5132492;27;20174;-70
2023/09/20 00:28:18;;;;;;;5.85;2.13;;;;;;;;;;5149652;27;20685;-69
2023/09/20 00:30:45;;;;;;;8.57;1.90;;;;;;;;;;5135837;27;20186;-68
2023/09/20 00:33:11;;;;;;;7.55;2.33;;;;;;;;;;5138486;27;20215;-69
2023/09/20 00:35:39;;;;;;;11.63;2.92;;;;;;;;;;5114477;27;20328;-70
2023/09/20 00:38:05;;;;;;;10.82;2.13;;;;;;;;;;5142692;27;20186;-69
2023/09/20 00:40:32;;;;;;;7.35;2.28;;;;;;;;;;5136540;27;20268;-68
2023/09/20 00:42:58;;;;;;;6.88;2.13;;;;;;;;;;5130215;27;20217;-70
2023/09/20 00:45:23;;;;;;;7.75;2.58;;;;;;;;;;5149991;27;20213;-68
2023/09/20 00:47:57;;;;;;;9.70;1.98;;;;;;;;;;5145549;27;20273;-69
2023/09/20 00:50:26;;;;;;;7.38;2.10;;;;;;;;;;5136459;27;20198;-74
2023/09/20 00:52:54;;;;;;;8.25;2.28;;;;;;;;;;5143957;27;20216;-69
2023/09/20 00:55:23;;;;;;;8.93;2.17;;;;;;;;;;5128889;27;20170;-70
2023/09/20 00:57:53;;;;;;;6.28;2.15;;;;;;;;;;5139877;27;20226;-69
2023/09/20 01:00:21;;;;;;;4.85;2.28;;;;;;;;;;5146197;27;20645;-69
2023/09/20 01:02:52;;;;;;;10.95;2.10;;;;;;;;;;5137884;27;20246;-68
2023/09/20 01:05:21;;;;;;;8.82;2.00;;;;;;;;;;5148321;27;20520;-68
2023/09/20 01:07:52;;;;;;;4.95;1.85;;;;;;;;;;5122517;27;20258;-68
2023/09/20 01:10:23;;;;;;;10.15;2.13;;;;;;;;;;5140996;27;20205;-69
2023/09/20 01:12:57;;;;;;;10.57;2.15;;;;;;;;;;5151274;27;20210;-70
2023/09/20 01:15:23;;;;;;;7.00;2.50;;;;;;;;;;5135384;27;20197;-69
2023/09/20 01:17:50;;;;;;;7.55;2.20;;;;;;;;;;5142483;27;20205;-68
2023/09/20 01:20:20;;;;;;;8.55;2.15;;;;;;;;;;5136480;27;20497;-69
2023/09/20 01:22:47;;;;;;;6.72;1.90;;;;;;;;;;5137356;27;20259;-69
2023/09/20 01:25:21;;;;;;;6.55;2.00;;;;;;;;;;5132976;27;20178;-69
2023/09/20 01:27:47;;;;;;;9.27;2.15;;;;;;;;;;5132927;27;20273;-70
2023/09/20 01:30:13;;;;;;;7.88;2.30;;;;;;;;;;5144814;27;20726;-69
2023/09/20 01:32:38;;;;;;;10.27;2.10;;;;;;;;;;5152038;27;20308;-68
2023/09/20 01:35:07;;;;;;;7.15;2.45;;;;;;;;;;5134669;27;20202;-70
2023/09/20 01:37:33;;;;;;;8.52;2.10;;;;;;;;;;5146948;27;20188;-70
2023/09/20 01:39:58;;;;;;;4.93;1.98;;;;;;;;;;5114969;27;20583;-69
2023/09/20 01:42:24;;;;;;;7.85;1.95;;;;;;;;;;5119348;27;20179;-69
2023/09/20 01:44:49;;;;;;;10.25;2.42;;;;;;;;;;5143658;27;20190;-73
2023/09/20 01:47:18;;;;;;;6.22;2.17;;;;;;;;;;5138372;27;20191;-69
2023/09/20 01:49:44;;;;;;;7.78;2.55;;;;;;;;;;5152312;27;20186;-70
2023/09/20 01:52:10;;;;;;;9.45;2.30;;;;;;;;;;5149327;27;20182;-69
2023/09/20 01:54:37;;;;;;;6.18;2.30;;;;;;;;;;5141580;27;20249;-69
2023/09/20 01:57:03;;;;;;;5.85;2.20;;;;;;;;;;5144915;27;20255;-69
2023/09/20 01:59:29;;;;;;;6.28;2.35;;;;;;;;;;5143309;27;20534;-71
2023/09/20 02:01:54;;;;;;;7.55;2.53;;;;;;;;;;5125882;27;20195;-69
2023/09/20 02:04:20;;;;;;;7.93;2.47;;;;;;;;;;5139372;27;20538;-70
2023/09/20 02:06:46;;;;;;;8.80;2.47;;;;;;;;;;5142864;27;20266;-69
2023/09/20 02:09:13;;;;;;;5.15;1.95;;;;;;;;;;5129753;27;20284;-69
2023/09/20 02:11:38;;;;;;;7.85;2.30;;;;;;;;;;5148067;27;20194;-71
2023/09/20 02:14:04;;;;;;;6.03;2.05;;;;;;;;;;5145627;27;20275;-70
2023/09/20 02:16:32;;;;;;;7.07;2.20;;;;;;;;;;5137684;27;20213;-70
2023/09/20 02:18:57;;;;;;;9.05;2.35;;;;;;;;;;5131953;27;20207;-70
2023/09/20 02:21:23;;;;;;;8.65;1.92;;;;;;;;;;5135015;27;20220;-70
2023/09/20 02:23:52;;;;;;;10.15;2.50;;;;;;;;;;5144400;27;20226;-70
2023/09/20 02:26:18;;;;;;;9.68;2.30;;;;;;;;;;5136409;27;20189;-70
2023/09/20 02:28:44;;;;;;;8.98;2.50;;;;;;;;;;5136853;27;20191;-69
2023/09/20 02:31:11;;;;;;;6.97;2.38;;;;;;;;;;5143098;27;20185;-69
2023/09/20 02:33:36;;;;;;;7.53;2.60;;;;;;;;;;5136997;27;20237;-70
2023/09/20 02:36:02;;;;;;;6.10;2.15;;;;;;;;;;5138863;27;20226;-69
2023/09/20 02:38:28;;;;;;;9.57;2.40;;;;;;;;;;5146189;27;20247;-69
2023/09/20 02:40:56;;;;;;;11.77;2.80;;;;;;;;;;5137390;27;20186;-68
2023/09/20 02:43:21;;;;;;;9.23;3.05;;;;;;;;;;5132452;27;20212;-69
2023/09/20 02:45:46;;;;;;;4.95;2.25;;;;;;;;;;5143915;27;20198;-69
2023/09/20 02:48:12;;;;;;;10.48;2.88;;;;;;;;;;5142916;27;20179;-68
2023/09/20 02:50:41;;;;;;;7.35;2.45;;;;;;;;;;5135650;27;20221;-69
2023/09/20 02:53:07;;;;;;;13.20;2.47;;;;;;;;;;5136215;27;20205;-70
2023/09/20 02:55:33;;;;;;;8.88;2.30;;;;;;;;;;5144397;27;20687;-68
2023/09/20 02:57:59;;;;;;;7.72;2.03;;;;;;;;;;5140503;27;20223;-70
2023/09/20 03:00:31;;;;;;;11.50;2.40;;;;;;;;;;5128686;27;20666;-68
2023/09/20 03:03:00;;;;;;;7.47;2.40;;;;;;;;;;5132679;27;20175;-70
2023/09/20 03:05:31;;;;;;;9.30;2.65;;;;;;;;;;5139563;27;20201;-69
2023/09/20 03:07:57;;;;;;;8.40;2.47;;;;;;;;;;5143448;27;20194;-68
2023/09/20 03:10:23;;;;;;;5.93;2.30;;;;;;;;;;5112034;27;20188;-68
2023/09/20 03:12:51;;;;;;;10.20;2.38;;;;;;;;;;5139368;27;20214;-69
2023/09/20 03:15:17;;;;;;;8.73;2.55;;;;;;;;;;5119386;27;20182;-71
2023/09/20 03:17:47;;;;;;;9.52;2.58;;;;;;;;;;5127546;27;20213;-68
2023/09/20 03:20:22;;;;;;;15.50;2.50;;;;;;;;;;5138250;27;20258;-70
2023/09/20 03:22:55;;;;;;;6.78;2.15;;;;;;;;;;5148144;27;20193;-69
2023/09/20 03:25:22;;;;;;;5.95;1.90;;;;;;;;;;5126220;27;20178;-69
2023/09/20 03:27:48;;;;;;;8.77;2.40;;;;;;;;;;5146735;27;20243;-70
2023/09/20 03:30:16;;;;;;;10.63;2.50;;;;;;;;;;5116177;27;20190;-69
2023/09/20 03:32:42;;;;;;;6.93;2.10;;;;;;;;;;5140677;27;20219;-68
2023/09/20 03:35:09;;;;;;;4.93;2.25;;;;;;;;;;5135650;27;20187;-70
2023/09/20 03:37:36;;;;;;;11.70;2.70;;;;;;;;;;5147379;27;20243;-68
2023/09/20 03:40:10;;;;;;;12.13;2.85;;;;;;;;;;5142863;27;20192;-72
2023/09/20 03:42:40;;;;;;;7.85;2.15;;;;;;;;;;5133574;27;20642;-69
2023/09/20 03:45:10;;;;;;;9.25;2.53;;;;;;;;;;5144999;27;20193;-69
2023/09/20 03:47:39;;;;;;;7.32;2.25;;;;;;;;;;5135799;27;20273;-71
2023/09/20 03:50:06;;;;;;;9.70;2.28;;;;;;;;;;5146099;27;20178;-71
2023/09/20 03:52:31;;;;;;;8.38;2.17;;;;;;;;;;5138088;27;20224;-70
2023/09/20 03:54:57;;;;;;;7.43;2.90;;;;;;;;;;5139936;27;20186;-70
2023/09/20 03:57:24;;;;;;;6.93;2.38;;;;;;;;;;5151076;27;20245;-70
2023/09/20 03:59:54;;;;;;;8.77;2.45;;;;;;;;;;5123938;27;20598;-70
2023/09/20 04:02:23;;;;;;;7.57;2.10;;;;;;;;;;5134608;27;20209;-69
2023/09/20 04:04:51;;;;;;;12.65;3.00;;;;;;;;;;5142595;27;20182;-69
2023/09/20 04:07:23;;;;;;;4.97;1.90;;;;;;;;;;5136792;27;20450;-69
2023/09/20 04:09:48;;;;;;;8.15;2.20;;;;;;;;;;5145875;27;20623;-69
2023/09/20 04:12:15;;;;;;;10.35;2.88;;;;;;;;;;5133051;27;20201;-70
2023/09/20 04:14:43;;;;;;;13.13;2.70;;;;;;;;;;5148721;27;20633;-69
2023/09/20 04:17:09;;;;;;;10.15;2.70;;;;;;;;;;5140892;27;20202;-69
2023/09/20 04:19:34;;;;;;;6.38;1.98;;;;;;;;;;5141309;27;20194;-70
2023/09/20 04:22:04;;;;;;;7.35;2.08;;;;;;;;;;5143301;27;20661;-70
2023/09/20 04:24:33;;;;;;;7.68;2.50;;;;;;;;;;5118480;27;20644;-70
2023/09/20 04:26:58;;;;;;;4.72;1.90;;;;;;;;;;5136876;27;20189;-70
2023/09/20 04:29:25;;;;;;;12.85;2.40;;;;;;;;;;5146787;27;20539;-69
2023/09/20 04:31:52;;;;;;;10.90;3.38;;;;;;;;;;5141927;27;20292;-69
2023/09/20 04:34:18;;;;;;;14.07;2.42;;;;;;;;;;5147719;27;20210;-71
2023/09/20 04:36:44;;;;;;;5.82;2.25;;;;;;;;;;5147654;27;20508;-69
2023/09/20 04:39:14;;;;;;;7.38;2.38;;;;;;;;;;5121854;27;20181;-70
2023/09/20 04:41:40;;;;;;;6.25;1.90;;;;;;;;;;5143223;27;20210;-68
2023/09/20 04:44:05;;;;;;;5.72;2.60;;;;;;;;;;5132303;27;20273;-69
2023/09/20 04:46:35;;;;;;;8.18;2.67;;;;;;;;;;5142085;27;20211;-68
2023/09/20 04:49:03;;;;;;;10.30;2.80;;;;;;;;;;5120718;27;20198;-69
2023/09/20 04:51:28;;;;;;;7.75;2.65;;;;;;;;;;5138387;27;20621;-69
2023/09/20 04:53:55;;;;;;;8.65;2.65;;;;;;;;;;5108253;27;20199;-69
2023/09/20 04:56:20;;;;;;;6.00;2.80;;;;;;;;;;5111978;27;20231;-69
2023/09/20 04:58:45;;;;;;;7.60;2.63;;;;;;;;;;5119689;27;20193;-70
2023/09/20 05:01:11;;;;;;;10.35;2.40;;;;;;;;;;5114670;27;20264;-70
2023/09/20 05:03:36;;;;;;;6.75;2.60;;;;;;;;;;5115525;27;20282;-73
2023/09/20 05:06:02;;;;;;;10.43;2.50;;;;;;;;;;5114147;27;20282;-70
2023/09/20 05:08:27;;;;;;;7.18;2.50;;;;;;;;;;5116074;27;20584;-73
2023/09/20 05:10:53;;;;;;;6.57;2.40;;;;;;;;;;5116577;27;20489;-68
2023/09/20 05:13:18;;;;;;;6.97;2.40;;;;;;;;;;5125469;27;20239;-70
2023/09/20 05:15:44;;;;;;;8.73;3.03;;;;;;;;;;5120995;27;20557;-68
2023/09/20 05:18:09;;;;;;;7.10;2.50;;;;;;;;;;5118190;27;20207;-69
2023/09/20 05:20:35;;;;;;;7.82;2.30;;;;;;;;;;5108378;27;20195;-68
2023/09/20 05:23:03;;;;;;;6.15;2.67;;;;;;;;;;5115479;27;20183;-67
2023/09/20 05:25:28;;;;;;;5.25;2.65;;;;;;;;;;5112739;27;20478;-72
2023/09/20 05:27:54;;;;;;;8.88;2.67;;;;;;;;;;5123359;27;20186;-69
2023/09/20 05:30:20;;;;;;;8.05;2.60;;;;;;;;;;5116662;27;20512;-69
2023/09/20 05:32:47;;;;;;;6.50;2.40;;;;;;;;;;5121539;27;20279;-72
2023/09/20 05:35:13;;;;;;;5.80;2.80;;;;;;;;;;5124092;27;20202;-69
2023/09/20 05:37:39;;;;;;;10.80;2.67;;;;;;;;;;5117505;27;20217;-68
2023/09/20 05:40:14;;;;;;;7.00;2.42;;;;;;;;;;5121878;27;20209;-75
2023/09/20 05:42:46;;;;;;;7.40;2.58;;;;;;;;;;5121339;27;20187;-69
2023/09/20 05:45:12;;;;;;;9.27;2.80;;;;;;;;;;5122316;27;20187;-68
2023/09/20 05:47:39;;;;;;;10.23;2.58;;;;;;;;;;5118497;27;20212;-68
2023/09/20 05:50:07;;;;;;;11.25;2.97;;;;;;;;;;5113587;27;20245;-69
2023/09/20 05:52:32;;;;;;;13.32;3.55;;;;;;;;;;5115265;27;20211;-68
2023/09/20 05:54:58;;;;;;;8.02;2.75;;;;;;;;;;5120598;27;20322;-70
2023/09/20 05:57:23;;;;;;;9.48;2.38;;;;;;;;;;5132780;27;20259;-69
2023/09/20 05:59:49;;;;;;;8.63;2.67;;;;;;;;;;5143875;27;20190;-69
2023/09/20 06:02:14;;;;;;;6.65;2.88;;;;;;;;;;5137423;27;20338;-69
2023/09/20 06:04:40;;;;;;;7.32;2.65;;;;;;;;;;5139911;27;20221;-69
2023/09/20 06:07:05;;;;;;;10.48;2.78;;;;;;;;;;5137705;27;20393;-69
2023/09/20 06:09:31;;;;;;;11.23;3.42;;;;;;;;;;5138915;27;20269;-69
2023/09/20 06:11:56;;;;;;;8.88;3.17;;;;;;;;;;5141696;27;20236;-72
2023/09/20 06:14:22;;;;;;;10.82;2.72;;;;;;;;;;5132201;27;20213;-69
2023/09/20 06:16:48;;;;;;;9.10;2.88;;;;;;;;;;5144794;27;20688;-68
2023/09/20 06:19:14;;;;;;;12.45;3.17;;;;;;;;;;5134071;27;20335;-70
2023/09/20 06:21:39;;;;;;;8.38;2.70;;;;;;;;;;5143094;27;20587;-71
2023/09/20 06:24:11;;;;;;;11.65;2.85;;;;;;;;;;5121909;27;20194;-69
2023/09/20 06:26:40;;;;;;;8.02;2.50;;;;;;;;;;5129030;27;20549;-70
2023/09/20 06:29:05;;;;;;;5.75;2.42;;;;;;;;;;5126813;27;20190;-69
2023/09/20 06:31:30;;;;;;;7.50;3.05;;;;;;;;;;5140038;27;20195;-69
2023/09/20 06:33:56;;;;;;;7.25;2.70;;;;;;;;;;5129015;27;20214;-69
2023/09/20 06:36:22;;;;;;;12.35;2.78;;;;;;;;;;5130120;27;20507;-69
2023/09/20 06:38:47;;;;;;;7.93;2.92;;;;;;;;;;5132149;27;20286;-70
2023/09/20 06:41:13;;;;;;;10.25;3.20;;;;;;;;;;5142369;27;20243;-68
2023/09/20 06:43:39;;;;;;;13.18;3.53;;;;;;;;;;5136590;27;20224;-70
2023/09/20 06:46:06;;;;;;;6.35;2.67;;;;;;;;;;5124677;27;20187;-68
2023/09/20 06:48:32;;;;;;;7.68;2.60;;;;;;;;;;5141764;27;20546;-69
2023/09/20 06:50:57;;;;;;;6.70;2.45;;;;;;;;;;5139422;27;20209;-70
2023/09/20 06:53:23;;;;;;;8.55;2.38;;;;;;;;;;5136316;27;20286;-68
2023/09/20 06:55:49;;;;;;;8.20;2.90;;;;;;;;;;5127048;27;20640;-69
2023/09/20 06:58:15;;;;;;;6.40;2.53;;;;;;;;;;5148418;27;20267;-68
2023/09/20 07:00:41;;;;;;;7.38;2.88;;;;;;;;;;5114175;27;20541;-69
2023/09/20 07:03:07;;;;;;;9.55;2.53;;;;;;;;;;5132010;27;20545;-68
2023/09/20 07:05:33;;;;;;;6.57;2.50;;;;;;;;;;5134160;27;20190;-68
2023/09/20 07:07:59;;;;;;;5.03;2.20;;;;;;;;;;5137419;27;20179;-67
2023/09/20 07:10:26;;;;;;;8.70;2.20;;;;;;;;;;5137184;27;20186;-73
2023/09/20 07:12:54;;;;;;;7.55;2.60;;;;;;;;;;5095192;27;20207;-72
2023/09/20 07:15:21;;;;;;;7.22;2.65;;;;;;;;;;5113362;27;20672;-68
2023/09/20 07:17:58;;;;;;;6.43;2.75;;;;;;;;;;5149958;27;20197;-67
2023/09/20 07:20:32;;;;;;;8.68;2.45;;;;;;;;;;5147835;27;20282;-68
2023/09/20 07:23:00;;;;;;;6.85;2.70;;;;;;;;;;5143763;27;20709;-69
2023/09/20 07:25:27;;;;;;;4.57;2.53;;;;;;;;;;5135526;27;20532;-68
2023/09/20 07:27:59;;;;;;;9.48;2.95;;;;;;;;;;5138879;27;20237;-69
2023/09/20 07:30:31;;;;;;;8.63;2.47;;;;;;;;;;5144546;27;20197;-69
2023/09/20 07:32:57;;;;;;;9.23;2.67;;;;;;;;;;5131054;27;20252;-72
2023/09/20 07:35:26;;;;;;;7.50;2.40;;;;;;;;;;5121493;27;20201;-70
2023/09/20 07:37:57;;;;;;;6.25;2.28;;;;;;;;;;5136527;27;20637;-70
2023/09/20 07:40:35;;;;;;;13.52;2.70;;;;;;;;;;5150427;27;20217;-69
2023/09/20 07:43:04;;;;;;;6.80;2.38;;;;;;;;;;5143678;27;20178;-68
2023/09/20 07:45:37;;;;;;;7.97;2.63;;;;;;;;;;5145971;27;20537;-69
2023/09/20 07:48:03;;;;;;;9.60;2.70;;;;;;;;;;5120132;27;20209;-68
2023/09/20 07:50:30;;;;;;;5.43;2.00;;;;;;;;;;5132022;27;20196;-72
2023/09/20 07:52:56;;;;;;;9.30;2.42;;;;;;;;;;5136639;27;20584;-69
2023/09/20 07:55:22;;;;;;;9.73;2.55;;;;;;;;;;5131373;27;20300;-69
2023/09/20 07:57:47;;;;;;;6.15;2.28;;;;;;;;;;5143458;27;20370;-70
2023/09/20 08:00:15;;;;;;;6.60;2.17;;;;;;;;;;5131259;27;20187;-69
2023/09/20 08:02:42;;;;;;;8.98;2.35;;;;;;;;;;5094843;27;20538;-71
2023/09/20 08:05:11;;;;;;;5.50;2.70;;;;;;;;;;5131234;27;20269;-71
2023/09/20 08:07:39;;;;;;;5.45;1.95;;;;;;;;;;5123253;27;20186;-73
2023/09/20 08:10:06;;;;;;;5.03;2.38;;;;;;;;;;5141551;27;20177;-72
2023/09/20 08:12:31;;;;;;;7.65;2.50;;;;;;;;;;5144676;27;20501;-71
2023/09/20 08:14:57;;;;;;;8.13;2.65;;;;;;;;;;5132345;27;20175;-69
2023/09/20 08:20:11;;;;;;;5.55;2.22;;;;;;;;;;5131719;27;20193;-70
2023/09/20 09:00:56;;;;;;;5.65;2.20;;;;;;;;;;5110827;27;20194;-70
2023/09/20 09:03:23;;;;;;;3.42;1.70;;;;;;;;;;5131191;27;20178;-70
2023/09/20 09:05:48;;;;;;;5.22;1.80;;;;;;;;;;5126112;27;20202;-73
2023/09/20 09:08:14;;;;;;;3.65;2.15;;;;;;;;;;5109074;27;20710;-68
2023/09/20 09:10:39;;;;;;;5.03;1.88;;;;;;;;;;5123199;27;20202;-69
2023/09/20 09:13:05;;;;;;;3.63;1.77;;;;;;;;;;5123364;27;20219;-71
2023/09/20 09:15:30;;;;;;;3.22;1.70;;;;;;;;;;5127032;27;20754;-74
2023/09/20 09:17:55;;;;;;;6.32;2.03;;;;;;;;;;5123710;27;20232;-70
2023/09/20 09:20:21;;;;;;;7.45;2.33;;;;;;;;;;5132978;27;20613;-70
2023/09/20 09:22:48;;;;;;;7.00;2.10;;;;;;;;;;5112318;27;20187;-69
2023/09/20 09:25:16;;;;;;;5.35;1.55;;;;;;;;;;5110196;28;20202;-69
2023/09/20 09:27:42;;;;;;;6.07;1.77;;;;;;;;;;5130455;27;20210;-69
2023/09/20 09:30:09;;;;;;;7.32;2.10;;;;;;;;;;5127424;27;20178;-71
2023/09/20 09:32:35;;;;;;;3.28;1.73;;;;;;;;;;5128715;27;20187;-69
2023/09/20 09:35:06;;;;;;;8.20;1.90;;;;;;;;;;5119938;27;20179;-70
2023/09/20 09:37:33;;;;;;;4.60;2.05;;;;;;;;;;5113249;27;20187;-69
2023/09/20 09:40:02;;;;;;;3.90;2.00;;;;;;;;;;5111482;27;20499;-69
2023/09/20 09:42:28;;;;;;;6.00;1.90;;;;;;;;;;5117743;27;20209;-70
2023/09/20 09:44:55;;;;;;;5.47;2.22;;;;;;;;;;5115927;27;20180;-71
2023/09/20 09:47:21;;;;;;;5.72;1.90;;;;;;;;;;5110360;28;20558;-70
2023/09/20 09:49:48;;;;;;;2.92;1.85;;;;;;;;;;5110456;28;20566;-74
2023/09/20 09:52:16;;;;;;;11.23;2.38;;;;;;;;;;5113102;27;20213;-70
2023/09/20 09:54:44;;;;;;;10.07;2.90;;;;;;;;;;5120189;27;20629;-73
2023/09/20 09:57:11;;;;;;;6.95;2.35;;;;;;;;;;5112260;27;20305;-69
2023/09/20 09:59:36;;;;;;;4.22;2.00;;;;;;;;;;5108853;28;20176;-68
2023/09/20 10:02:03;;;;;;;6.32;2.83;;;;;;;;;;5110351;28;20191;-69
2023/09/20 10:04:31;;;;;;;6.43;2.53;;;;;;;;;;5123361;27;20663;-70
2023/09/20 10:07:24;;;;;;;8.02;2.97;;;;;;;;;;5110738;28;20199;-70
2023/09/20 10:09:52;;;;;;;6.00;2.85;;;;;;;;;;5121232;27;20260;-72
2023/09/20 10:12:20;;;;;;;7.50;2.55;;;;;;;;;;5124092;27;20540;-69
2023/09/20 10:14:46;;;;;;;9.65;2.70;;;;;;;;;;5136186;27;20285;-73
2023/09/20 10:17:21;;;;;;;6.40;2.75;;;;;;;;;;5111317;27;20210;-69
2023/09/20 10:19:52;;;;;;;6.97;2.60;;;;;;;;;;5118913;27;20186;-70
2023/09/20 10:22:21;;;;;;;6.88;2.40;;;;;;;;;;5106278;28;20245;-68
2023/09/20 10:24:50;;;;;;;5.43;2.55;;;;;;;;;;5109556;28;20521;-69
2023/09/20 10:27:26;;;;;;;5.82;2.10;;;;;;;;;;5111185;27;20187;-71
2023/09/20 10:30:09;;;;;;;4.55;2.25;;;;;;;;;;5119554;28;20190;-68
2023/09/20 10:32:56;;;;;;;7.30;2.22;;;;;;;;;;5115608;27;20202;-72
2023/09/20 10:35:36;;;;;;;2.80;2.47;;;;;;;;;;5130409;27;20178;-73
2023/09/20 10:38:02;;;;;;;5.18;2.50;;;;;;;;;;5116547;27;20290;-69
2023/09/20 10:40:45;;;;;;;5.70;2.30;;;;;;;;;;5114659;28;20228;-70
2023/09/20 10:43:25;;;;;;;5.50;2.35;;;;;;;;;;5123888;27;20271;-69
2023/09/20 10:45:52;;;;;;;5.20;1.92;;;;;;;;;;5109738;28;20187;-70
2023/09/20 10:48:18;;;;;;;7.00;2.53;;;;;;;;;;5108703;28;20562;-73
2023/09/20 10:50:57;;;;;;;4.13;2.17;;;;;;;;;;5107400;28;20669;-71
2023/09/20 10:53:43;;;;;;;6.45;2.60;;;;;;;;;;5122970;28;20221;-69
2023/09/20 10:56:10;;;;;;;6.70;2.70;;;;;;;;;;5123209;27;20198;-69
2023/09/20 10:58:41;;;;;;;5.32;3.03;;;;;;;;;;5130264;27;20232;-72
2023/09/20 11:01:10;;;;;;;6.70;3.00;;;;;;;;;;5149770;27;20182;-70
2023/09/20 11:03:35;;;;;;;4.68;2.80;;;;;;;;;;5136121;27;20198;-69
2023/09/20 11:06:00;;;;;;;7.30;2.95;;;;;;;;;;5146861;27;20796;-73
2023/09/20 11:08:27;;;;;;;5.32;2.90;;;;;;;;;;5131944;27;20195;-70
2023/09/20 11:10:54;;;;;;;5.75;3.00;;;;;;;;;;5144405;27;20241;-70
2023/09/20 11:13:21;;;;;;;5.40;2.63;;;;;;;;;;5149266;27;20202;-70
2023/09/20 11:15:48;;;;;;;4.03;2.65;;;;;;;;;;5142430;27;20186;-70
2023/09/20 11:18:19;;;;;;;5.00;2.90;;;;;;;;;;5111498;28;20206;-73
2023/09/20 11:20:46;;;;;;;5.03;2.47;;;;;;;;;;5128241;27;20674;-69
2023/09/20 11:23:13;;;;;;;4.95;2.40;;;;;;;;;;5140743;27;20269;-69
2023/09/20 11:25:41;;;;;;;5.97;2.80;;;;;;;;;;5134906;27;20186;-69
2023/09/20 11:28:08;;;;;;;9.07;2.53;;;;;;;;;;5139087;27;20289;-69
2023/09/20 11:30:34;;;;;;;3.35;2.05;;;;;;;;;;5117585;27;20191;-67
2023/09/20 11:33:03;;;;;;;5.53;2.60;;;;;;;;;;5117468;27;20721;-68
2023/09/20 11:35:39;;;;;;;4.55;2.30;;;;;;;;;;5114460;27;20575;-69
2023/09/20 11:38:07;;;;;;;3.10;1.90;;;;;;;;;;5134854;27;20186;-68
2023/09/20 11:40:37;;;;;;;3.92;2.03;;;;;;;;;;5146571;27;20602;-68
2023/09/20 11:43:09;;;;;;;4.85;1.90;;;;;;;;;;5133731;27;20514;-69
2023/09/20 11:45:38;;;;;;;4.38;1.92;;;;;;;;;;5152238;27;20182;-71
2023/09/20 11:48:13;;;;;;;4.25;1.70;;;;;;;;;;5134946;27;20194;-71
2023/09/20 11:50:44;;;;;;;4.35;1.90;;;;;;;;;;5129294;27;20684;-69
2023/09/20 11:53:18;;;;;;;3.20;1.63;;;;;;;;;;5114411;27;20213;-75
2023/09/20 11:55:45;;;;;;;3.63;1.60;;;;;;;;;;5137426;27;20177;-69
2023/09/20 11:58:10;;;;;;;7.80;1.80;;;;;;;;;;5142519;27;20291;-72
2023/09/20 12:00:36;;;;;;;5.68;1.77;;;;;;;;;;5132260;27;20705;-70
2023/09/20 12:03:03;;;;;;;4.25;1.48;;;;;;;;;;5141129;27;20261;-70
2023/09/20 12:05:28;;;;;;;4.22;1.92;;;;;;;;;;5136305;27;20191;-70
2023/09/20 12:07:58;;;;;;;3.90;1.80;;;;;;;;;;5134582;27;20650;-68
2023/09/20 12:10:26;;;;;;;2.58;1.60;;;;;;;;;;5111951;27;20233;-70
2023/09/20 12:12:52;;;;;;;4.30;1.70;;;;;;;;;;5132871;27;20222;-70
2023/09/20 12:15:18;;;;;;;4.40;1.48;;;;;;;;;;5145627;27;20721;-71
2023/09/20 12:17:45;;;;;;;2.70;1.30;;;;;;;;;;5140695;27;20238;-70
2023/09/20 12:20:12;;;;;;;5.47;1.50;;;;;;;;;;5118963;27;20190;-70
2023/09/20 12:22:38;;;;;;;3.72;1.58;;;;;;;;;;5145942;27;20346;-68
2023/09/20 12:25:06;;;;;;;1.73;1.63;;;;;;;;;;5127197;27;20178;-69
2023/09/20 12:27:32;;;;;;;4.63;1.67;;;;;;;;;;5135967;27;20181;-69
2023/09/20 12:29:58;;;;;;;3.72;1.45;;;;;;;;;;5139244;27;20787;-69
2023/09/20 12:32:23;;;;;;;2.53;1.73;;;;;;;;;;5115761;27;20178;-68
2023/09/20 12:34:51;;;;;;;2.45;1.40;;;;;;;;;;5151501;27;20262;-68
2023/09/20 12:37:19;;;;;;;4.30;1.58;;;;;;;;;;5118228;27;20544;-73
2023/09/20 12:39:46;;;;;;;3.22;1.25;;;;;;;;;;5125671;27;20186;-75
2023/09/20 12:42:12;;;;;;;2.95;1.50;;;;;;;;;;5113469;27;20182;-68
2023/09/20 12:44:37;;;;;;;4.28;1.48;;;;;;;;;;5131501;27;20186;-69
2023/09/20 12:47:03;;;;;;;2.67;1.40;;;;;;;;;;5148903;27;20174;-74
2023/09/20 12:49:28;;;;;;;4.32;1.60;;;;;;;;;;5123826;27;20258;-69
2023/09/20 12:51:54;;;;;;;4.45;1.42;;;;;;;;;;5139581;27;20178;-73
2023/09/20 12:54:19;;;;;;;2.47;1.10;;;;;;;;;;5132449;27;20286;-73
2023/09/20 12:56:45;;;;;;;4.63;1.30;;;;;;;;;;5137936;27;20640;-74
2023/09/20 12:59:13;;;;;;;3.15;1.27;;;;;;;;;;5112316;27;20197;-72
2023/09/20 13:01:38;;;;;;;3.72;1.45;;;;;;;;;;5121189;27;20347;-72
2023/09/20 13:04:04;;;;;;;3.63;1.20;;;;;;;;;;5125036;27;20294;-74
2023/09/20 13:06:32;;;;;;;4.60;1.23;;;;;;;;;;5105728;27;20193;-69
2023/09/20 13:08:58;;;;;;;3.53;1.38;;;;;;;;;;5140005;27;20190;-73
2023/09/20 13:11:23;;;;;;;4.18;1.40;;;;;;;;;;5126920;27;20182;-69
2023/09/20 13:13:49;;;;;;;2.45;1.30;;;;;;;;;;5146005;27;20206;-70
2023/09/20 13:16:16;;;;;;;4.75;1.00;;;;;;;;;;5130380;27;20190;-68
2023/09/20 13:18:43;;;;;;;6.13;1.52;;;;;;;;;;5135178;27;20210;-69
2023/09/20 13:21:09;;;;;;;2.85;1.35;;;;;;;;;;5117988;27;20212;-69
2023/09/20 13:23:34;;;;;;;4.05;1.50;;;;;;;;;;5140710;27;20182;-69
2023/09/20 13:26:03;;;;;;;4.30;1.27;;;;;;;;;;5135214;27;20346;-71
2023/09/20 13:28:28;;;;;;;4.00;1.00;;;;;;;;;;5136117;27;20190;-71
2023/09/20 13:30:54;;;;;;;5.55;1.27;;;;;;;;;;5134973;27;20550;-69
2023/09/20 13:33:19;;;;;;;3.60;1.10;;;;;;;;;;5138763;27;20702;-69
2023/09/20 13:35:45;;;;;;;4.10;1.23;;;;;;;;;;5135652;27;20186;-71
2023/09/20 13:38:13;;;;;;;3.15;1.40;;;;;;;;;;5131122;27;20194;-74
2023/09/20 13:40:41;;;;;;;2.58;0.90;;;;;;;;;;5131091;27;20664;-70
2023/09/20 13:43:12;;;;;;;2.33;1.08;;;;;;;;;;5142946;27;20310;-69
2023/09/20 13:45:38;;;;;;;4.47;1.33;;;;;;;;;;5135217;27;20551;-68
2023/09/20 13:48:03;;;;;;;3.50;1.20;;;;;;;;;;5100618;27;20343;-68
2023/09/20 13:50:29;;;;;;;4.07;1.30;;;;;;;;;;5142978;27;20265;-68
2023/09/20 13:52:54;;;;;;;2.50;1.23;;;;;;;;;;5135483;27;20289;-71
2023/09/20 13:55:20;;;;;;;2.15;1.00;;;;;;;;;;5129209;27;20535;-67
2023/09/20 13:57:48;;;;;;;3.20;1.10;;;;;;;;;;5139873;27;20226;-68
2023/09/20 14:00:16;;;;;;;3.08;1.20;;;;;;;;;;5136521;27;20284;-71
2023/09/20 14:02:43;;;;;;;4.65;1.33;;;;;;;;;;5129110;27;20551;-69
2023/09/20 14:05:16;;;;;;;3.35;1.52;;;;;;;;;;5107611;27;20640;-73
2023/09/20 14:07:48;;;;;;;3.38;1.17;;;;;;;;;;5139738;27;20190;-72
2023/09/20 14:10:19;;;;;;;5.95;1.50;;;;;;;;;;5129023;27;20565;-70
2023/09/20 14:12:48;;;;;;;4.72;1.48;;;;;;;;;;5146164;27;20288;-73
2023/09/20 14:15:18;;;;;;;3.97;1.30;;;;;;;;;;5141206;27;20589;-70
2023/09/20 14:17:49;;;;;;;2.85;1.02;;;;;;;;;;5110665;27;20289;-68
2023/09/20 14:20:18;;;;;;;4.07;1.50;;;;;;;;;;5134071;27;20213;-71
2023/09/20 14:22:44;;;;;;;4.50;1.25;;;;;;;;;;5118945;28;20200;-68
2023/09/20 14:25:11;;;;;;;2.67;1.13;;;;;;;;;;5128811;27;20649;-69
2023/09/20 14:27:37;;;;;;;4.05;1.48;;;;;;;;;;5139385;27;20476;-68
2023/09/20 14:30:08;;;;;;;3.70;1.10;;;;;;;;;;5134434;27;20185;-69
2023/09/20 14:32:34;;;;;;;2.28;1.13;;;;;;;;;;5136209;27;20193;-69
2023/09/20 14:34:59;;;;;;;3.00;1.30;;;;;;;;;;5134080;27;20209;-70
2023/09/20 14:37:26;;;;;;;2.53;1.30;;;;;;;;;;5121308;27;20194;-69
2023/09/20 14:39:52;;;;;;;2.70;1.20;;;;;;;;;;5143590;27;20196;-70
2023/09/20 14:42:19;;;;;;;4.25;1.67;;;;;;;;;;5150445;27;20186;-70
2023/09/20 14:44:44;;;;;;;4.55;1.60;;;;;;;;;;5149037;27;20194;-68
2023/09/20 14:47:10;;;;;;;5.13;1.75;;;;;;;;;;5141910;27;20179;-69
2023/09/20 14:49:35;;;;;;;6.68;1.60;;;;;;;;;;5135220;27;20328;-69
2023/09/20 14:52:01;;;;;;;3.03;1.50;;;;;;;;;;5142741;27;20671;-69
2023/09/20 14:54:27;;;;;;;5.53;1.70;;;;;;;;;;5145960;27;20209;-68
2023/09/20 14:56:52;;;;;;;3.10;1.45;;;;;;;;;;5149866;27;20225;-68
2023/09/20 14:59:18;;;;;;;5.82;1.83;;;;;;;;;;5141920;27;20188;-70
2023/09/20 15:01:44;;;;;;;2.85;1.17;;;;;;;;;;5139510;27;20194;-69
2023/09/20 15:04:10;;;;;;;4.70;1.65;;;;;;;;;;5134229;27;20254;-69
2023/09/20 15:06:36;;;;;;;3.70;1.50;;;;;;;;;;5142762;27;20200;-69
2023/09/20 15:09:01;;;;;;;3.55;1.50;;;;;;;;;;5141133;27;20205;-71
2023/09/20 15:11:28;;;;;;;3.17;1.30;;;;;;;;;;5146667;27;20178;-69
2023/09/20 15:13:53;;;;;;;4.75;1.65;;;;;;;;;;5126874;27;20210;-69
2023/09/20 15:16:20;;;;;;;1.98;1.50;;;;;;;;;;5144670;27;20186;-68
2023/09/20 15:18:48;;;;;;;4.13;1.88;;;;;;;;;;5142075;27;20289;-69
2023/09/20 15:21:15;;;;;;;3.95;1.83;;;;;;;;;;5124125;27;20209;-70
2023/09/20 15:23:41;;;;;;;5.03;1.58;;;;;;;;;;5145909;27;20584;-69